createdAt,value
2016-09-09T13:24:30.093Z,31.29
2016-09-09T13:25:30.215Z,30.92
2016-09-09T13:26:30.050Z,30.7
2016-09-09T13:27:30.076Z,30.42
2016-09-09T13:28:30.116Z,30.19
2016-09-09T13:29:30.176Z,29.97
2016-09-09T13:30:30.218Z,29.86
2016-09-09T13:31:30.234Z,29.73
2016-09-09T13:32:30.242Z,30.15
2016-09-09T13:33:30.254Z,30.47
2016-09-09T13:34:30.297Z,30.82
2016-09-09T13:35:30.334Z,31.13
2016-09-09T13:36:30.342Z,31.12
2016-09-09T13:37:30.385Z,31.28
2016-09-09T13:38:30.402Z,31.23
2016-09-09T13:39:30.477Z,31.32
2016-09-09T13:40:30.521Z,31.28
2016-09-09T13:41:30.565Z,31.36
2016-09-09T13:42:30.578Z,31.51
2016-09-09T14:30:35.944Z,33.12
2016-09-09T14:31:36.025Z,33.22
2016-09-09T14:32:36.034Z,33.21
2016-09-09T14:33:36.049Z,33.37
2016-09-09T14:34:36.047Z,33.31
2016-09-09T14:35:36.095Z,33.34
2016-09-09T14:36:36.179Z,33.35
2016-09-09T14:37:36.195Z,33.37
2016-09-09T14:38:36.296Z,33.39
2016-09-09T14:39:36.240Z,33.41
2016-09-09T14:40:36.277Z,33.38
2016-09-09T14:41:36.348Z,33.38
2016-09-09T14:42:36.397Z,33.16
2016-09-09T14:43:36.408Z,33.12
2016-09-09T14:44:36.405Z,33.12
2016-09-09T14:45:36.426Z,33.09
2016-09-09T14:46:36.505Z,33.11
2016-09-09T14:47:36.524Z,33.14
2016-09-09T14:48:36.562Z,33.14
2016-09-09T14:49:36.583Z,33.21
2016-09-09T14:50:36.597Z,33.21
2016-09-09T14:51:36.690Z,33.22
2016-09-09T14:52:36.709Z,33.28
2016-09-09T14:53:36.728Z,33.26
2016-09-09T14:54:36.798Z,33.34
2016-09-09T14:55:36.809Z,33.23
2016-09-09T14:56:36.874Z,33.34
2016-09-09T14:57:36.879Z,33.26
2016-09-09T14:58:36.940Z,33.23
2016-09-09T14:59:36.944Z,33.23
2016-09-09T15:00:36.981Z,33.28
2016-09-09T15:17:34.590Z,32.92
2016-09-09T15:18:35.833Z,32.93
2016-09-09T15:19:34.853Z,32.87
2016-09-09T15:20:34.646Z,32.81
2016-09-09T15:21:34.799Z,32.81
2016-09-09T15:22:34.699Z,32.78
2016-09-09T15:23:34.704Z,32.74
2016-09-09T15:24:34.952Z,32.78
2016-09-09T15:25:37.809Z,32.67
2016-09-09T15:26:34.841Z,32.72
2016-09-09T15:27:34.825Z,32.65
2016-09-09T15:28:35.202Z,32.6
2016-09-09T15:29:39.412Z,32.59
2016-09-09T15:30:34.970Z,32.59
2016-09-09T15:31:34.985Z,32.52
2016-09-09T15:32:35.018Z,32.57
2016-09-09T15:33:35.064Z,32.52
2016-09-09T15:34:35.083Z,32.55
2016-09-09T15:35:35.123Z,32.55
2016-09-09T15:36:35.174Z,32.56
2016-09-09T15:37:35.200Z,32.51
2016-09-09T15:38:35.256Z,32.59
2016-09-09T15:39:35.972Z,32.51
2016-09-09T15:40:35.631Z,32.47
2016-09-09T15:41:35.939Z,32.48
2016-09-09T15:42:35.521Z,32.43
2016-09-09T15:43:35.407Z,32.44
2016-09-09T15:44:35.436Z,32.45
2016-09-09T15:45:35.511Z,32.41
2016-09-09T15:46:35.683Z,32.44
2016-09-09T15:47:35.510Z,32.4
2016-09-09T15:48:35.589Z,32.41
